Time,TemperatureF,DewpointF,PressureIn,WindDirection,WindDirectionDegrees,WindSpeedMPH,WindSpeedGustMPH,Humidity,HourlyPrecipIn,Conditions,Clouds,dailyrainin,SoftwareType,DateUTC
2013-06-04 00:00:00,49.7,47.2,30.13,NE,49,1.0,1.0,91,0.00,,,0.00,Wunderground v.1.15,2013-06-04 05:00:00,
2013-06-04 00:05:00,50.0,47.2,30.13,NE,51,0.0,19.0,90,0.00,,,0.00,Wunderground v.1.15,2013-06-04 05:05:00,
2013-06-04 00:10:00,50.1,47.3,30.12,ENE,69,0.0,19.0,90,0.00,,,0.00,Wunderground v.1.15,2013-06-04 05:10:00,
2013-06-04 00:20:00,50.5,47.4,30.12,ENE,67,0.0,19.0,89,0.00,,,0.00,Wunderground v.1.15,2013-06-04 05:20:00,
2013-06-04 00:25:00,50.6,47.5,30.13,ENE,78,1.0,19.0,89,0.00,,,0.00,Wunderground v.1.15,2013-06-04 05:25:00,
2013-06-04 00:30:00,50.8,47.4,30.12,ENE,77,1.0,1.0,88,0.00,,,0.00,Wunderground v.1.15,2013-06-04 05:30:00,
2013-06-04 00:35:00,50.9,47.5,30.13,ENE,77,0.0,19.0,88,0.00,,,0.00,Wunderground v.1.15,2013-06-04 05:35:00,
2013-06-04 00:40:00,50.9,47.2,30.13,ENE,74,0.0,19.0,87,0.00,,,0.00,Wunderground v.1.15,2013-06-04 05:40:00,
2013-06-04 00:45:00,51.0,47.0,30.13,NE,49,0.0,19.0,86,0.00,,,0.00,Wunderground v.1.15,2013-06-04 05:45:00,
2013-06-04 00:50:00,51.2,46.8,30.13,East,86,0.0,19.0,85,0.00,,,0.00,Wunderground v.1.15,2013-06-04 05:50:00,
2013-06-04 00:55:00,51.2,46.5,30.13,East,86,0.0,19.0,84,0.00,,,0.00,Wunderground v.1.15,2013-06-04 05:55:00,
2013-06-04 01:00:00,51.1,46.4,30.14,East,84,0.0,19.0,84,0.00,,,0.00,Wunderground v.1.15,2013-06-04 06:00:00,
2013-06-04 01:05:00,51.1,46.4,30.13,East,84,0.0,19.0,84,0.00,,,0.00,Wunderground v.1.15,2013-06-04 06:05:00,
2013-06-04 01:15:00,50.9,46.2,30.13,ENE,68,0.0,19.0,84,0.00,,,0.00,Wunderground v.1.15,2013-06-04 06:15:00,
2013-06-04 01:20:00,50.8,45.8,30.13,NE,48,0.0,19.0,83,0.00,,,0.00,Wunderground v.1.15,2013-06-04 06:20:00,
2013-06-04 01:25:00,50.7,45.7,30.13,East,99,0.0,19.0,83,0.00,,,0.00,Wunderground v.1.15,2013-06-04 06:25:00,
2013-06-04 01:30:00,50.6,45.9,30.14,East,99,0.0,19.0,84,0.00,,,0.00,Wunderground v.1.15,2013-06-04 06:30:00,
2013-06-04 01:35:00,50.6,45.9,30.13,East,99,0.0,19.0,84,0.00,,,0.00,Wunderground v.1.15,2013-06-04 06:35:00,
2013-06-04 01:40:00,50.3,45.6,30.14,East,99,0.0,19.0,84,0.00,,,0.00,Wunderground v.1.15,2013-06-04 06:40:00,
2013-06-04 01:45:00,49.9,45.3,30.14,East,99,0.0,19.0,84,0.00,,,0.00,Wunderground v.1.15,2013-06-04 06:45:00,
2013-06-04 01:50:00,49.4,45.1,30.14,East,82,0.0,19.0,85,0.00,,,0.00,Wunderground v.1.15,2013-06-04 06:50:00,
2013-06-04 01:55:00,49.2,45.2,30.14,East,82,0.0,19.0,86,0.00,,,0.00,Wunderground v.1.15,2013-06-04 06:55:00,
2013-06-04 02:00:00,49.0,45.0,30.14,East,82,0.0,19.0,86,0.00,,,0.00,Wunderground v.1.15,2013-06-04 07:00:00,
2013-06-04 02:05:00,48.8,45.1,30.13,East,82,0.0,19.0,87,0.00,,,0.00,Wunderground v.1.15,2013-06-04 07:05:00,
2013-06-04 02:10:00,48.7,45.0,30.13,East,82,0.0,19.0,87,0.00,,,0.00,Wunderground v.1.15,2013-06-04 07:10:00,
2013-06-04 02:15:00,48.3,44.6,30.13,East,82,0.0,19.0,87,0.00,,,0.00,Wunderground v.1.15,2013-06-04 07:15:00,
2013-06-04 02:20:00,47.7,44.0,30.13,East,82,0.0,19.0,87,0.00,,,0.00,Wunderground v.1.15,2013-06-04 07:20:00,
2013-06-04 02:25:00,47.6,43.9,30.13,East,88,0.0,19.0,87,0.00,,,0.00,Wunderground v.1.15,2013-06-04 07:25:00,
2013-06-04 02:30:00,47.6,44.2,30.13,East,88,0.0,19.0,88,0.00,,,0.00,Wunderground v.1.15,2013-06-04 07:30:00,
2013-06-04 02:35:00,47.4,44.0,30.13,East,88,0.0,19.0,88,0.00,,,0.00,Wunderground v.1.15,2013-06-04 07:35:00,
2013-06-04 02:40:00,46.8,43.4,30.13,East,88,0.0,19.0,88,0.00,,,0.00,Wunderground v.1.15,2013-06-04 07:40:00,
2013-06-04 02:45:00,46.3,42.9,30.13,East,88,0.0,19.0,88,0.00,,,0.00,Wunderground v.1.15,2013-06-04 07:45:00,
2013-06-04 02:50:00,46.0,42.9,30.13,East,88,0.0,19.0,89,0.00,,,0.00,Wunderground v.1.15,2013-06-04 07:50:00,
2013-06-04 02:55:00,46.1,43.3,30.13,East,88,0.0,19.0,90,0.00,,,0.00,Wunderground v.1.15,2013-06-04 07:55:00,
2013-06-04 03:00:00,45.9,43.1,30.13,East,88,0.0,19.0,90,0.00,,,0.00,Wunderground v.1.15,2013-06-04 08:00:00,
2013-06-04 03:05:00,45.5,42.7,30.13,East,88,0.0,19.0,90,0.00,,,0.00,Wunderground v.1.15,2013-06-04 08:05:00,
2013-06-04 03:10:00,45.3,42.8,30.13,East,88,0.0,19.0,91,0.00,,,0.00,Wunderground v.1.15,2013-06-04 08:10:00,
2013-06-04 03:15:00,45.2,42.7,30.13,East,88,0.0,19.0,91,0.00,,,0.00,Wunderground v.1.15,2013-06-04 08:15:00,
2013-06-04 03:20:00,45.1,42.6,30.13,East,88,0.0,19.0,91,0.00,,,0.00,Wunderground v.1.15,2013-06-04 08:20:00,
2013-06-04 03:25:00,44.9,42.4,30.13,East,88,0.0,19.0,91,0.00,,,0.00,Wunderground v.1.15,2013-06-04 08:25:00,
2013-06-04 03:30:00,44.7,42.2,30.13,East,88,0.0,19.0,91,0.00,,,0.00,Wunderground v.1.15,2013-06-04 08:30:00,
2013-06-04 03:35:00,44.6,42.4,30.13,East,88,0.0,19.0,92,0.00,,,0.00,Wunderground v.1.15,2013-06-04 08:35:00,
2013-06-04 03:40:00,44.7,42.5,30.13,East,88,0.0,19.0,92,0.00,,,0.00,Wunderground v.1.15,2013-06-04 08:40:00,
2013-06-04 03:45:00,44.6,42.4,30.13,East,88,0.0,19.0,92,0.00,,,0.00,Wunderground v.1.15,2013-06-04 08:45:00,
2013-06-04 03:50:00,44.3,42.1,30.13,East,88,0.0,19.0,92,0.00,,,0.00,Wunderground v.1.15,2013-06-04 08:50:00,
2013-06-04 03:55:00,44.0,41.8,30.13,East,88,0.0,19.0,92,0.00,,,0.00,Wunderground v.1.15,2013-06-04 08:55:00,
2013-06-04 04:00:00,43.8,41.6,30.13,East,88,0.0,19.0,92,0.00,,,0.00,Wunderground v.1.15,2013-06-04 09:00:00,
2013-06-04 04:05:00,43.7,41.5,30.13,East,88,0.0,19.0,92,0.00,,,0.00,Wunderground v.1.15,2013-06-04 09:05:00,
2013-06-04 04:10:00,44.0,42.1,30.14,East,88,0.0,19.0,93,0.00,,,0.00,Wunderground v.1.15,2013-06-04 09:10:00,
2013-06-04 04:15:00,44.0,42.1,30.14,East,88,0.0,19.0,93,0.00,,,0.00,Wunderground v.1.15,2013-06-04 09:15:00,
2013-06-04 04:20:00,44.0,42.1,30.14,East,88,0.0,19.0,93,0.00,,,0.00,Wunderground v.1.15,2013-06-04 09:20:00,
2013-06-04 04:25:00,43.9,42.0,30.14,East,88,0.0,19.0,93,0.00,,,0.00,Wunderground v.1.15,2013-06-04 09:25:00,
2013-06-04 04:30:00,43.8,41.9,30.14,East,88,0.0,19.0,93,0.00,,,0.00,Wunderground v.1.15,2013-06-04 09:30:00,
2013-06-04 04:35:00,44.2,42.6,30.14,NE,55,0.0,19.0,94,0.00,,,0.00,Wunderground v.1.15,2013-06-04 09:35:00,
2013-06-04 04:40:00,44.5,42.9,30.14,East,90,0.0,19.0,94,0.00,,,0.00,Wunderground v.1.15,2013-06-04 09:40:00,
2013-06-04 04:45:00,44.5,42.6,30.14,East,90,0.0,19.0,93,0.00,,,0.00,Wunderground v.1.15,2013-06-04 09:45:00,
2013-06-04 04:50:00,44.5,42.6,30.15,East,90,0.0,19.0,93,0.00,,,0.00,Wunderground v.1.15,2013-06-04 09:50:00,
2013-06-04 04:55:00,44.3,42.1,30.14,East,90,0.0,19.0,92,0.00,,,0.00,Wunderground v.1.15,2013-06-04 09:55:00,
2013-06-04 05:00:00,44.2,42.3,30.15,East,90,0.0,19.0,93,0.00,,,0.00,Wunderground v.1.15,2013-06-04 10:00:00,
2013-06-04 05:05:00,44.3,42.4,30.15,ESE,111,0.0,19.0,93,0.00,,,0.00,Wunderground v.1.15,2013-06-04 10:05:00,
2013-06-04 05:10:00,44.3,42.4,30.15,ESE,111,0.0,19.0,93,0.00,,,0.00,Wunderground v.1.15,2013-06-04 10:10:00,
2013-06-04 05:15:00,44.4,42.5,30.15,SSE,155,0.0,19.0,93,0.00,,,0.00,Wunderground v.1.15,2013-06-04 10:15:00,
2013-06-04 05:20:00,44.6,42.4,30.16,SSE,155,0.0,19.0,92,0.00,,,0.00,Wunderground v.1.15,2013-06-04 10:20:00,
2013-06-04 05:30:00,44.5,42.3,30.16,East,95,0.0,19.0,92,0.00,,,0.00,Wunderground v.1.15,2013-06-04 10:30:00,
2013-06-04 05:35:00,45.0,42.5,30.16,ENE,73,1.0,19.0,91,0.00,,,0.00,Wunderground v.1.15,2013-06-04 10:35:00,
2013-06-04 05:40:00,46.1,42.7,30.17,East,92,1.0,1.0,88,0.00,,,0.00,Wunderground v.1.15,2013-06-04 10:40:00,
2013-06-04 05:45:00,47.3,43.0,30.17,East,96,1.0,19.0,85,0.00,,,0.00,Wunderground v.1.15,2013-06-04 10:45:00,
2013-06-04 05:50:00,48.2,42.6,30.17,SE,144,2.0,19.0,81,0.00,,,0.00,Wunderground v.1.15,2013-06-04 10:50:00,
2013-06-04 05:55:00,49.1,42.2,30.17,East,87,2.0,19.0,77,0.00,,,0.00,Wunderground v.1.15,2013-06-04 10:55:00,
2013-06-04 06:00:00,49.6,41.7,30.17,ENE,69,2.0,2.0,74,0.00,,,0.00,Wunderground v.1.15,2013-06-04 11:00:00,
2013-06-04 06:05:00,50.1,41.8,30.18,East,89,1.0,5.0,73,0.00,,,0.00,Wunderground v.1.15,2013-06-04 11:05:00,
2013-06-04 06:10:00,50.6,41.5,30.18,SE,131,1.0,1.0,71,0.00,,,0.00,Wunderground v.1.15,2013-06-04 11:10:00,
2013-06-04 06:15:00,51.2,41.4,30.19,ESE,113,0.0,19.0,69,0.00,,,0.00,Wunderground v.1.15,2013-06-04 11:15:00,
2013-06-04 06:20:00,51.6,41.0,30.19,ESE,122,1.0,19.0,67,0.00,,,0.00,Wunderground v.1.15,2013-06-04 11:20:00,
2013-06-04 06:25:00,51.6,40.6,30.19,SE,126,2.0,19.0,66,0.00,,,0.00,Wunderground v.1.15,2013-06-04 11:25:00,
2013-06-04 06:30:00,51.6,41.0,30.19,SE,126,2.0,19.0,67,0.00,,,0.00,Wunderground v.1.15,2013-06-04 11:30:00,
2013-06-04 06:35:00,51.8,41.6,30.19,ENE,78,1.0,19.0,68,0.00,,,0.00,Wunderground v.1.15,2013-06-04 11:35:00,
2013-06-04 06:45:00,52.6,40.8,30.19,SE,137,2.0,19.0,64,0.00,,,0.00,Wunderground v.1.15,2013-06-04 11:45:00,
2013-06-04 06:50:00,52.3,38.8,30.19,SSE,167,4.0,19.0,60,0.00,,,0.00,Wunderground v.1.15,2013-06-04 11:50:00,
2013-06-04 06:55:00,52.2,39.1,30.20,ESE,103,4.0,19.0,61,0.00,,,0.00,Wunderground v.1.15,2013-06-04 11:55:00,
2013-06-04 07:00:00,52.1,38.6,30.19,SE,131,3.0,19.0,60,0.00,,,0.00,Wunderground v.1.15,2013-06-04 12:00:00,
2013-06-04 07:05:00,52.1,39.1,30.19,ESE,121,4.0,19.0,61,0.00,,,0.00,Wunderground v.1.15,2013-06-04 12:05:00,
2013-06-04 07:10:00,52.1,39.9,30.19,SSE,147,4.0,4.0,63,0.00,,,0.00,Wunderground v.1.15,2013-06-04 12:10:00,
2013-06-04 07:15:00,52.1,39.1,30.19,SE,140,3.0,5.0,61,0.00,,,0.00,Wunderground v.1.15,2013-06-04 12:15:00,
2013-06-04 07:20:00,52.1,39.1,30.19,East,79,4.0,4.0,61,0.00,,,0.00,Wunderground v.1.15,2013-06-04 12:20:00,
2013-06-04 07:25:00,52.2,38.7,30.19,SSE,153,3.0,19.0,60,0.00,,,0.00,Wunderground v.1.15,2013-06-04 12:25:00,
2013-06-04 07:30:00,52.4,39.8,30.19,SSE,157,2.0,2.0,62,0.00,,,0.00,Wunderground v.1.15,2013-06-04 12:30:00,
2013-06-04 07:55:00,53.2,38.4,30.20,ESE,108,3.0,19.0,57,0.00,,,0.00,Wunderground v.1.15,2013-06-04 12:55:00,
2013-06-04 07:58:00,53.3,38.9,30.20,East,88,4.0,19.0,58,0.00,,,0.00,Wunderground v.1.15,2013-06-04 12:58:00,
2013-06-04 08:00:00,53.4,38.5,30.20,SSE,164,3.0,4.0,57,0.00,,,0.00,Wunderground v.1.15,2013-06-04 13:00:00,
2013-06-04 08:05:00,53.9,38.6,30.20,SSE,148,2.0,4.0,56,0.00,,,0.00,Wunderground v.1.15,2013-06-04 13:05:00,
2013-06-04 08:10:00,54.4,38.6,30.19,SE,133,3.0,5.0,55,0.00,,,0.00,Wunderground v.1.15,2013-06-04 13:10:00,
2013-06-04 08:15:00,54.6,38.3,30.19,ESE,105,4.0,6.0,54,0.00,,,0.00,Wunderground v.1.15,2013-06-04 13:15:00,
2013-06-04 08:20:00,54.6,38.3,30.18,East,94,5.0,5.0,54,0.00,,,0.00,Wunderground v.1.15,2013-06-04 13:20:00,
2013-06-04 08:25:00,54.6,38.3,30.18,ESE,111,5.0,5.0,54,0.00,,,0.00,Wunderground v.1.15,2013-06-04 13:25:00,
2013-06-04 08:30:00,55.0,39.1,30.17,ESE,105,5.0,6.0,55,0.00,,,0.00,Wunderground v.1.15,2013-06-04 13:30:00,
2013-06-04 08:35:00,55.4,40.0,30.17,SE,129,5.0,6.0,56,0.00,,,0.00,Wunderground v.1.15,2013-06-04 13:35:00,
2013-06-04 08:40:00,55.7,41.1,30.17,ENE,72,5.0,5.0,58,0.00,,,0.00,Wunderground v.1.15,2013-06-04 13:40:00,
2013-06-04 08:50:00,55.1,38.7,30.18,ESE,117,5.0,7.0,54,0.00,,,0.00,Wunderground v.1.15,2013-06-04 13:50:00,
2013-06-04 08:55:00,54.8,39.8,30.18,South,170,6.0,7.0,57,0.00,,,0.00,Wunderground v.1.15,2013-06-04 13:55:00,
2013-06-04 09:00:00,55.4,40.0,30.18,ESE,105,5.0,8.0,56,0.00,,,0.00,Wunderground v.1.15,2013-06-04 14:00:00,
2013-06-04 09:05:00,55.0,39.1,30.18,East,91,6.0,8.0,55,0.00,,,0.00,Wunderground v.1.15,2013-06-04 14:05:00,
2013-06-04 09:10:00,54.6,39.7,30.18,ENE,76,6.0,6.0,57,0.00,,,0.00,Wunderground v.1.15,2013-06-04 14:10:00,
2013-06-04 09:15:00,54.4,39.5,30.18,ENE,61,5.0,8.0,57,0.00,,,0.00,Wunderground v.1.15,2013-06-04 14:15:00,
2013-06-04 09:20:00,54.6,40.6,30.18,East,86,3.0,8.0,59,0.00,,,0.00,Wunderground v.1.15,2013-06-04 14:20:00,
2013-06-04 09:25:00,55.0,40.9,30.19,ENE,71,3.0,8.0,59,0.00,,,0.00,Wunderground v.1.15,2013-06-04 14:25:00,
2013-06-04 09:30:00,55.0,40.0,30.19,NE,55,4.0,4.0,57,0.00,,,0.00,Wunderground v.1.15,2013-06-04 14:30:00,
2013-06-04 09:35:00,55.1,40.1,30.19,ENE,73,4.0,8.0,57,0.00,,,0.00,Wunderground v.1.15,2013-06-04 14:35:00,
2013-06-04 09:40:00,55.4,40.0,30.19,ESE,108,3.0,3.0,56,0.00,,,0.00,Wunderground v.1.15,2013-06-04 14:40:00,
2013-06-04 09:45:00,55.9,40.9,30.20,ESE,113,3.0,8.0,57,0.00,,,0.00,Wunderground v.1.15,2013-06-04 14:45:00,
2013-06-04 09:55:00,56.1,40.1,30.20,East,81,2.0,8.0,55,0.00,,,0.00,Wunderground v.1.15,2013-06-04 14:55:00,
2013-06-04 10:00:00,56.4,40.9,30.20,SE,140,2.0,8.0,56,0.00,,,0.00,Wunderground v.1.15,2013-06-04 15:00:00,
2013-06-04 10:05:00,56.7,39.7,30.20,SSE,148,2.0,8.0,53,0.00,,,0.00,Wunderground v.1.15,2013-06-04 15:05:00,
2013-06-04 10:15:00,56.7,40.2,30.20,East,100,3.0,8.0,54,0.00,,,0.00,Wunderground v.1.15,2013-06-04 15:15:00,
2013-06-04 10:20:00,56.8,39.8,30.21,ENE,69,3.0,8.0,53,0.00,,,0.00,Wunderground v.1.15,2013-06-04 15:20:00,
2013-06-04 10:25:00,56.5,39.1,30.21,NE,52,3.0,8.0,52,0.00,,,0.00,Wunderground v.1.15,2013-06-04 15:25:00,
2013-06-04 10:30:00,56.3,38.4,30.21,ESE,103,2.0,8.0,51,0.00,,,0.00,Wunderground v.1.15,2013-06-04 15:30:00,
2013-06-04 10:35:00,56.1,38.7,30.20,SE,139,3.0,8.0,52,0.00,,,0.00,Wunderground v.1.15,2013-06-04 15:35:00,
2013-06-04 10:40:00,55.9,38.5,30.21,ESE,123,3.0,8.0,52,0.00,,,0.00,Wunderground v.1.15,2013-06-04 15:40:00,
2013-06-04 10:45:00,56.1,38.7,30.21,East,93,2.0,8.0,52,0.00,,,0.00,Wunderground v.1.15,2013-06-04 15:45:00,
2013-06-04 10:50:00,56.2,38.8,30.21,ENE,62,1.0,8.0,52,0.00,,,0.00,Wunderground v.1.15,2013-06-04 15:50:00,
2013-06-04 10:55:00,56.3,39.4,30.21,SE,124,1.0,8.0,53,0.00,,,0.00,Wunderground v.1.15,2013-06-04 15:55:00,
2013-06-04 11:00:00,56.4,39.0,30.21,ESE,109,2.0,2.0,52,0.00,,,0.00,Wunderground v.1.15,2013-06-04 16:00:00,
2013-06-04 11:05:00,56.5,38.6,30.21,East,79,3.0,4.0,51,0.00,,,0.00,Wunderground v.1.15,2013-06-04 16:05:00,
2013-06-04 11:10:00,56.5,38.1,30.22,ESE,112,2.0,2.0,50,0.00,,,0.00,Wunderground v.1.15,2013-06-04 16:10:00,
2013-06-04 11:15:00,56.6,38.2,30.22,ENE,65,2.0,3.0,50,0.00,,,0.00,Wunderground v.1.15,2013-06-04 16:15:00,
2013-06-04 11:20:00,56.7,38.3,30.21,SE,124,2.0,2.0,50,0.00,,,0.00,Wunderground v.1.15,2013-06-04 16:20:00,
2013-06-04 11:25:00,56.7,38.8,30.22,SSE,150,2.0,8.0,51,0.00,,,0.00,Wunderground v.1.15,2013-06-04 16:25:00,
2013-06-04 11:35:00,56.3,41.3,30.21,ENE,77,3.0,8.0,57,0.00,,,0.00,Wunderground v.1.15,2013-06-04 16:35:00,
2013-06-04 11:40:00,56.2,42.1,30.21,ENE,78,3.0,3.0,59,0.00,,,0.00,Wunderground v.1.15,2013-06-04 16:40:00,
2013-06-04 11:45:00,55.9,41.8,30.22,ENE,65,3.0,4.0,59,0.00,,,0.00,Wunderground v.1.15,2013-06-04 16:45:00,
2013-06-04 11:50:00,55.7,42.0,30.22,NE,50,3.0,3.0,60,0.00,,,0.00,Wunderground v.1.15,2013-06-04 16:50:00,
2013-06-04 11:55:00,55.4,42.2,30.22,NE,49,3.0,8.0,61,0.00,,,0.00,Wunderground v.1.15,2013-06-04 16:55:00,
2013-06-04 12:00:00,55.2,42.4,30.22,NE,55,3.0,3.0,62,0.00,,,0.00,Wunderground v.1.15,2013-06-04 17:00:00,
2013-06-04 12:05:00,55.1,42.7,30.22,East,95,3.0,8.0,63,0.00,,,0.00,Wunderground v.1.15,2013-06-04 17:05:00,
2013-06-04 12:10:00,55.4,42.6,30.22,ESE,105,2.0,8.0,62,0.00,,,0.00,Wunderground v.1.15,2013-06-04 17:10:00,
2013-06-04 12:15:00,55.4,42.6,30.23,ENE,60,2.0,8.0,62,0.00,,,0.00,Wunderground v.1.15,2013-06-04 17:15:00,
2013-06-04 12:20:00,55.5,42.7,30.23,NE,41,2.0,8.0,62,0.00,,,0.00,Wunderground v.1.15,2013-06-04 17:20:00,
2013-06-04 12:25:00,55.7,42.5,30.23,ENE,70,2.0,8.0,61,0.00,,,0.00,Wunderground v.1.15,2013-06-04 17:25:00,
2013-06-04 12:30:00,55.9,40.0,30.23,SSE,159,1.0,1.0,55,0.00,,,0.00,Wunderground v.1.15,2013-06-04 17:30:00,
2013-06-04 12:35:00,56.2,39.3,30.23,SE,144,1.0,8.0,53,0.00,,,0.00,Wunderground v.1.15,2013-06-04 17:35:00,
2013-06-04 12:40:00,56.4,40.9,30.22,East,82,1.0,8.0,56,0.00,,,0.00,Wunderground v.1.15,2013-06-04 17:40:00,
2013-06-04 12:45:00,56.5,39.1,30.22,ENE,75,2.0,8.0,52,0.00,,,0.00,Wunderground v.1.15,2013-06-04 17:45:00,
2013-06-04 12:50:00,56.6,41.5,30.22,SE,132,2.0,2.0,57,0.00,,,0.00,Wunderground v.1.15,2013-06-04 17:50:00,
2013-06-04 12:55:00,56.4,41.3,30.22,East,94,2.0,6.0,57,0.00,,,0.00,Wunderground v.1.15,2013-06-04 17:55:00,
2013-06-04 13:00:00,56.1,40.1,30.22,ENE,67,4.0,8.0,55,0.00,,,0.00,Wunderground v.1.15,2013-06-04 18:00:00,
2013-06-04 13:05:00,56.2,40.7,30.22,East,92,4.0,8.0,56,0.00,,,0.00,Wunderground v.1.15,2013-06-04 18:05:00,
2013-06-04 13:10:00,56.2,41.6,30.22,SE,135,3.0,3.0,58,0.00,,,0.00,Wunderground v.1.15,2013-06-04 18:10:00,
2013-06-04 13:15:00,56.5,39.6,30.21,ESE,116,2.0,8.0,53,0.00,,,0.00,Wunderground v.1.15,2013-06-04 18:15:00,
2013-06-04 13:20:00,56.7,38.8,30.22,ENE,78,2.0,2.0,51,0.00,,,0.00,Wunderground v.1.15,2013-06-04 18:20:00,
2013-06-04 13:25:00,56.6,37.1,30.22,East,97,2.0,5.0,48,0.00,,,0.00,Wunderground v.1.15,2013-06-04 18:25:00,
2013-06-04 13:30:00,56.6,36.6,30.22,ESE,123,3.0,3.0,47,0.00,,,0.00,Wunderground v.1.15,2013-06-04 18:30:00,
2013-06-04 13:35:00,56.7,36.7,30.22,ESE,113,3.0,6.0,47,0.00,,,0.00,Wunderground v.1.15,2013-06-04 18:35:00,
2013-06-04 13:40:00,56.6,38.2,30.22,East,88,4.0,4.0,50,0.00,,,0.00,Wunderground v.1.15,2013-06-04 18:40:00,
2013-06-04 13:45:00,56.5,38.1,30.21,East,101,2.0,8.0,50,0.00,,,0.00,Wunderground v.1.15,2013-06-04 18:45:00,
2013-06-04 13:50:00,56.4,38.0,30.22,ESE,115,3.0,3.0,50,0.00,,,0.00,Wunderground v.1.15,2013-06-04 18:50:00,
2013-06-04 13:55:00,56.4,36.4,30.22,ESE,111,3.0,8.0,47,0.00,,,0.00,Wunderground v.1.15,2013-06-04 18:55:00,
2013-06-04 14:00:00,56.4,38.5,30.22,ESE,122,1.0,1.0,51,0.00,,,0.00,Wunderground v.1.15,2013-06-04 19:00:00,
2013-06-04 14:05:00,56.4,36.9,30.22,SE,133,1.0,8.0,48,0.00,,,0.00,Wunderground v.1.15,2013-06-04 19:05:00,
2013-06-04 14:10:00,56.3,37.9,30.22,East,101,2.0,2.0,50,0.00,,,0.00,Wunderground v.1.15,2013-06-04 19:10:00,
2013-06-04 14:15:00,56.3,39.4,30.22,ESE,117,2.0,4.0,53,0.00,,,0.00,Wunderground v.1.15,2013-06-04 19:15:00,
2013-06-04 14:20:00,56.1,37.7,30.22,ESE,119,2.0,8.0,50,0.00,,,0.00,Wunderground v.1.15,2013-06-04 19:20:00,
2013-06-04 14:25:00,56.1,37.7,30.22,East,98,2.0,8.0,50,0.00,,,0.00,Wunderground v.1.15,2013-06-04 19:25:00,
2013-06-04 14:30:00,56.1,37.7,30.22,SE,130,3.0,3.0,50,0.00,,,0.00,Wunderground v.1.15,2013-06-04 19:30:00,
2013-06-04 14:35:00,56.1,38.2,30.21,ENE,67,2.0,8.0,51,0.00,,,0.00,Wunderground v.1.15,2013-06-04 19:35:00,
2013-06-04 14:40:00,56.2,36.8,30.21,ESE,112,2.0,8.0,48,0.00,,,0.00,Wunderground v.1.15,2013-06-04 19:40:00,
2013-06-04 14:45:00,56.1,37.2,30.21,ENE,57,2.0,8.0,49,0.00,,,0.00,Wunderground v.1.15,2013-06-04 19:45:00,
2013-06-04 14:50:00,56.0,38.1,30.21,ESE,108,2.0,8.0,51,0.00,,,0.00,Wunderground v.1.15,2013-06-04 19:50:00,
2013-06-04 14:55:00,55.9,37.0,30.21,East,89,2.0,8.0,49,0.00,,,0.00,Wunderground v.1.15,2013-06-04 19:55:00,
2013-06-04 15:00:00,55.8,37.4,30.21,SE,125,2.0,2.0,50,0.00,,,0.00,Wunderground v.1.15,2013-06-04 20:00:00,
2013-06-04 15:05:00,55.7,38.3,30.21,SE,127,2.0,4.0,52,0.00,,,0.00,Wunderground v.1.15,2013-06-04 20:05:00,
2013-06-04 15:10:00,55.5,37.7,30.21,SE,141,2.0,8.0,51,0.00,,,0.00,Wunderground v.1.15,2013-06-04 20:10:00,
2013-06-04 15:15:00,55.5,38.1,30.21,SSE,168,2.0,8.0,52,0.00,,,0.00,Wunderground v.1.15,2013-06-04 20:15:00,
2013-06-04 15:25:00,55.3,39.9,30.21,ESE,108,3.0,5.0,56,0.00,,,0.00,Wunderground v.1.15,2013-06-04 20:25:00,
2013-06-04 15:30:00,55.2,39.8,30.21,East,98,2.0,2.0,56,0.00,,,0.00,Wunderground v.1.15,2013-06-04 20:30:00,
2013-06-04 15:35:00,55.1,40.1,30.21,SE,130,1.0,4.0,57,0.00,,,0.00,Wunderground v.1.15,2013-06-04 20:35:00,
2013-06-04 15:40:00,54.8,39.8,30.20,SE,130,2.0,2.0,57,0.00,,,0.00,Wunderground v.1.15,2013-06-04 20:40:00,
2013-06-04 15:45:00,54.5,40.9,30.20,SSE,157,2.0,8.0,60,0.00,,,0.00,Wunderground v.1.15,2013-06-04 20:45:00,
2013-06-04 15:50:00,54.3,41.6,30.20,SSE,157,1.0,1.0,62,0.00,,,0.00,Wunderground v.1.15,2013-06-04 20:50:00,
2013-06-04 15:55:00,54.2,42.7,30.20,SSE,155,0.0,2.0,65,0.00,,,0.00,Wunderground v.1.15,2013-06-04 20:55:00,
2013-06-04 16:00:00,53.8,41.5,30.20,SE,142,1.0,1.0,63,0.00,,,0.00,Wunderground v.1.15,2013-06-04 21:00:00,
2013-06-04 16:05:00,53.4,41.5,30.20,South,171,2.0,5.0,64,0.00,,,0.00,Wunderground v.1.15,2013-06-04 21:05:00,
2013-06-04 16:10:00,53.0,41.1,30.20,SSE,168,2.0,8.0,64,0.00,,,0.00,Wunderground v.1.15,2013-06-04 21:10:00,
2013-06-04 16:15:00,52.9,42.2,30.20,SSE,162,2.0,8.0,67,0.00,,,0.00,Wunderground v.1.15,2013-06-04 21:15:00,
2013-06-04 16:20:00,52.8,42.5,30.20,SSE,165,2.0,8.0,68,0.00,,,0.01,Wunderground v.1.15,2013-06-04 21:20:00,
2013-06-04 16:25:00,52.6,41.6,30.20,South,175,2.0,8.0,66,0.00,,,0.01,Wunderground v.1.15,2013-06-04 21:25:00,
2013-06-04 16:30:00,52.3,42.0,30.19,SE,146,2.0,2.0,68,0.00,,,0.01,Wunderground v.1.15,2013-06-04 21:30:00,
2013-06-04 16:35:00,52.3,42.0,30.19,SE,127,2.0,8.0,68,0.00,,,0.01,Wunderground v.1.15,2013-06-04 21:35:00,
2013-06-04 16:40:00,52.3,42.4,30.20,SSE,151,1.0,1.0,69,0.00,,,0.01,Wunderground v.1.15,2013-06-04 21:40:00,
2013-06-04 16:45:00,52.2,42.0,30.19,SSE,157,0.0,2.0,68,0.00,,,0.01,Wunderground v.1.15,2013-06-04 21:45:00,
2013-06-04 16:55:00,51.9,41.7,30.19,South,170,0.0,8.0,68,0.00,,,0.01,Wunderground v.1.15,2013-06-04 21:55:00,
2013-06-04 17:00:00,51.7,40.7,30.19,SSE,147,1.0,1.0,66,0.00,,,0.01,Wunderground v.1.15,2013-06-04 22:00:00,
2013-06-04 17:05:00,51.6,41.4,30.19,SSE,157,1.0,8.0,68,0.00,,,0.01,Wunderground v.1.15,2013-06-04 22:05:00,
2013-06-04 17:10:00,51.6,41.4,30.19,SSE,161,0.0,8.0,68,0.00,,,0.01,Wunderground v.1.15,2013-06-04 22:10:00,
2013-06-04 17:15:00,51.5,41.7,30.19,SSW,193,0.0,8.0,69,0.00,,,0.01,Wunderground v.1.15,2013-06-04 22:15:00,
2013-06-04 17:20:00,51.6,43.2,30.19,SW,220,0.0,8.0,73,0.00,,,0.01,Wunderground v.1.15,2013-06-04 22:20:00,
2013-06-04 17:25:00,51.4,43.4,30.20,SW,220,1.0,8.0,74,0.00,,,0.01,Wunderground v.1.15,2013-06-04 22:25:00,
2013-06-04 17:30:00,51.2,43.9,30.20,SW,214,2.0,8.0,76,0.00,,,0.01,Wunderground v.1.15,2013-06-04 22:30:00,
2013-06-04 17:35:00,51.1,43.8,30.20,SW,214,2.0,8.0,76,0.00,,,0.01,Wunderground v.1.15,2013-06-04 22:35:00,
2013-06-04 17:40:00,51.1,44.1,30.20,SW,214,0.0,8.0,77,0.00,,,0.01,Wunderground v.1.15,2013-06-04 22:40:00,
2013-06-04 17:45:00,51.3,45.0,30.20,WSW,257,0.0,8.0,79,0.00,,,0.01,Wunderground v.1.15,2013-06-04 22:45:00,
2013-06-04 17:50:00,51.1,44.8,30.20,WNW,282,0.0,8.0,79,0.00,,,0.01,Wunderground v.1.15,2013-06-04 22:50:00,
2013-06-04 17:55:00,51.0,45.0,30.20,West,267,1.0,8.0,80,0.00,,,0.01,Wunderground v.1.15,2013-06-04 22:55:00,
2013-06-04 18:00:00,51.0,45.0,30.20,SSW,213,1.0,1.0,80,0.00,,,0.01,Wunderground v.1.15,2013-06-04 23:00:00,
2013-06-04 18:05:00,50.9,45.3,30.20,SW,227,1.0,8.0,81,0.00,,,0.01,Wunderground v.1.15,2013-06-04 23:05:00,
2013-06-04 18:10:00,50.8,45.5,30.20,SSW,211,1.0,8.0,82,0.00,,,0.01,Wunderground v.1.15,2013-06-04 23:10:00,
2013-06-04 18:15:00,50.8,45.5,30.19,SSW,211,0.0,8.0,82,0.00,,,0.02,Wunderground v.1.15,2013-06-04 23:15:00,
2013-06-04 18:20:00,50.8,45.5,30.19,SSW,211,0.0,8.0,82,0.00,,,0.02,Wunderground v.1.15,2013-06-04 23:20:00,
2013-06-04 18:25:00,50.7,45.1,30.19,WSW,244,0.0,8.0,81,0.00,,,0.02,Wunderground v.1.15,2013-06-04 23:25:00,
2013-06-04 18:30:00,50.7,45.1,30.19,WSW,244,0.0,8.0,81,0.00,,,0.02,Wunderground v.1.15,2013-06-04 23:30:00,
2013-06-04 18:40:00,50.7,45.4,30.19,NW,319,0.0,8.0,82,0.00,,,0.02,Wunderground v.1.15,2013-06-04 23:40:00,
2013-06-04 18:45:00,50.8,45.8,30.19,NNE,15,1.0,8.0,83,0.00,,,0.02,Wunderground v.1.15,2013-06-04 23:45:00,
2013-06-04 18:50:00,50.6,45.6,30.18,NNE,28,2.0,2.0,83,0.00,,,0.02,Wunderground v.1.15,2013-06-04 23:50:00,
2013-06-04 18:55:00,50.6,45.9,30.18,NE,40,2.0,8.0,84,0.00,,,0.02,Wunderground v.1.15,2013-06-04 23:55:00,
2013-06-04 19:00:00,50.5,46.2,30.18,NNE,17,1.0,8.0,85,0.00,,,0.02,Wunderground v.1.15,2013-06-05 00:00:00,
2013-06-04 19:05:00,50.4,46.1,30.18,NNE,29,1.0,8.0,85,0.00,,,0.02,Wunderground v.1.15,2013-06-05 00:05:00,
2013-06-04 19:10:00,50.4,46.1,30.18,NNE,32,2.0,2.0,85,0.00,,,0.02,Wunderground v.1.15,2013-06-05 00:10:00,
2013-06-04 19:15:00,50.3,46.3,30.17,NE,42,2.0,3.0,86,0.00,,,0.02,Wunderground v.1.15,2013-06-05 00:15:00,
2013-06-04 19:20:00,50.3,46.0,30.18,NE,36,2.0,8.0,85,0.00,,,0.02,Wunderground v.1.15,2013-06-05 00:20:00,
2013-06-04 19:25:00,50.2,45.9,30.17,NNE,30,3.0,8.0,85,0.00,,,0.02,Wunderground v.1.15,2013-06-05 00:25:00,
2013-06-04 19:35:00,50.0,45.4,30.16,NE,35,5.0,8.0,84,0.00,,,0.02,Wunderground v.1.15,2013-06-05 00:35:00,
2013-06-04 19:40:00,50.0,45.7,30.16,NNE,24,5.0,8.0,85,0.00,,,0.02,Wunderground v.1.15,2013-06-05 00:40:00,
2013-06-04 19:45:00,49.9,45.6,30.15,NE,34,6.0,8.0,85,0.00,,,0.02,Wunderground v.1.15,2013-06-05 00:45:00,
2013-06-04 19:50:00,50.1,45.5,30.15,NE,48,6.0,6.0,84,0.00,,,0.02,Wunderground v.1.15,2013-06-05 00:50:00,
2013-06-04 19:55:00,50.3,45.3,30.16,WSW,252,4.0,8.0,83,0.00,,,0.02,Wunderground v.1.15,2013-06-05 00:55:00,
2013-06-04 20:00:00,50.5,45.8,30.18,SSW,202,4.0,8.0,84,0.00,,,0.02,Wunderground v.1.15,2013-06-05 01:00:00,
2013-06-04 20:05:00,50.0,45.7,30.18,SSW,213,5.0,8.0,85,0.00,,,0.02,Wunderground v.1.15,2013-06-05 01:05:00,
2013-06-04 20:15:00,49.8,46.1,30.17,SSW,202,2.0,8.0,87,0.00,,,0.02,Wunderground v.1.15,2013-06-05 01:15:00,
2013-06-04 20:20:00,49.7,46.0,30.18,SSW,200,0.0,8.0,87,0.00,,,0.02,Wunderground v.1.15,2013-06-05 01:20:00,
2013-06-04 20:25:00,49.6,45.9,30.17,SSW,200,0.0,8.0,87,0.00,,,0.02,Wunderground v.1.15,2013-06-05 01:25:00,
2013-06-04 20:30:00,49.6,46.2,30.18,SSW,200,0.0,8.0,88,0.00,,,0.02,Wunderground v.1.15,2013-06-05 01:30:00,
2013-06-04 20:35:00,49.7,46.6,30.18,SW,229,0.0,8.0,89,0.00,,,0.02,Wunderground v.1.15,2013-06-05 01:35:00,
2013-06-04 20:40:00,49.5,46.7,30.18,SSW,194,1.0,1.0,90,0.00,,,0.02,Wunderground v.1.15,2013-06-05 01:40:00,
2013-06-04 20:45:00,49.3,46.5,30.18,SSW,209,2.0,4.0,90,0.00,,,0.02,Wunderground v.1.15,2013-06-05 01:45:00,
2013-06-04 20:55:00,49.2,46.7,30.18,SSW,197,0.0,8.0,91,0.00,,,0.02,Wunderground v.1.15,2013-06-05 01:55:00,
2013-06-04 21:05:00,49.2,46.7,30.18,SSW,197,0.0,8.0,91,0.00,,,0.02,Wunderground v.1.15,2013-06-05 02:05:00,
2013-06-04 21:15:00,49.1,46.6,30.18,South,178,0.0,8.0,91,0.00,,,0.02,Wunderground v.1.15,2013-06-05 02:15:00,
2013-06-04 21:20:00,49.3,47.1,30.18,South,178,0.0,8.0,92,0.00,,,0.02,Wunderground v.1.15,2013-06-05 02:20:00,
2013-06-04 21:25:00,49.2,46.7,30.18,South,178,0.0,8.0,91,0.00,,,0.02,Wunderground v.1.15,2013-06-05 02:25:00,
2013-06-04 21:30:00,49.2,47.0,30.18,South,178,0.0,8.0,92,0.00,,,0.02,Wunderground v.1.15,2013-06-05 02:30:00,
2013-06-04 21:35:00,49.1,46.9,30.18,NE,34,0.0,8.0,92,0.00,,,0.02,Wunderground v.1.15,2013-06-05 02:35:00,
2013-06-04 21:40:00,49.2,47.0,30.19,NNE,33,1.0,1.0,92,0.00,,,0.02,Wunderground v.1.15,2013-06-05 02:40:00,
2013-06-04 21:45:00,49.3,47.1,30.19,ENE,61,0.0,8.0,92,0.00,,,0.02,Wunderground v.1.15,2013-06-05 02:45:00,
2013-06-04 21:50:00,49.2,47.0,30.19,ENE,61,0.0,8.0,92,0.00,,,0.02,Wunderground v.1.15,2013-06-05 02:50:00,
2013-06-04 21:55:00,49.2,47.3,30.19,NE,54,0.0,8.0,93,0.00,,,0.02,Wunderground v.1.15,2013-06-05 02:55:00,
2013-06-04 22:00:00,49.2,47.3,30.18,NNE,24,0.0,8.0,93,0.00,,,0.02,Wunderground v.1.15,2013-06-05 03:00:00,
2013-06-04 22:05:00,49.3,47.4,30.18,NNE,22,0.0,8.0,93,0.00,,,0.02,Wunderground v.1.15,2013-06-05 03:05:00,
2013-06-04 22:10:00,49.4,47.5,30.18,NNE,22,0.0,8.0,93,0.00,,,0.02,Wunderground v.1.15,2013-06-05 03:10:00,
2013-06-04 22:15:00,49.6,47.7,30.18,NNE,22,0.0,8.0,93,0.00,,,0.02,Wunderground v.1.15,2013-06-05 03:15:00,
2013-06-04 22:20:00,49.9,48.0,30.18,West,265,0.0,8.0,93,0.00,,,0.02,Wunderground v.1.15,2013-06-05 03:20:00,
2013-06-04 22:25:00,50.2,48.3,30.18,West,265,0.0,8.0,93,0.00,,,0.02,Wunderground v.1.15,2013-06-05 03:25:00,
2013-06-04 22:30:00,50.0,47.8,30.19,SW,223,1.0,8.0,92,0.00,,,0.02,Wunderground v.1.15,2013-06-05 03:30:00,
2013-06-04 22:35:00,49.7,47.5,30.20,SW,216,2.0,8.0,92,0.00,,,0.02,Wunderground v.1.15,2013-06-05 03:35:00,
2013-06-04 22:40:00,49.6,47.4,30.20,SSW,209,3.0,8.0,92,0.00,,,0.02,Wunderground v.1.15,2013-06-05 03:40:00,
2013-06-04 22:45:00,49.4,47.5,30.20,SSW,213,3.0,8.0,93,0.00,,,0.02,Wunderground v.1.15,2013-06-05 03:45:00,
2013-06-04 22:50:00,49.4,47.5,30.20,SW,224,3.0,3.0,93,0.00,,,0.02,Wunderground v.1.15,2013-06-05 03:50:00,
2013-06-04 22:55:00,49.3,47.4,30.20,West,261,3.0,8.0,93,0.00,,,0.02,Wunderground v.1.15,2013-06-05 03:55:00,
2013-06-04 23:05:00,49.4,47.5,30.20,SSW,196,3.0,8.0,93,0.00,,,0.02,Wunderground v.1.15,2013-06-05 04:05:00,
2013-06-04 23:10:00,49.3,47.4,30.20,South,177,3.0,8.0,93,0.00,,,0.02,Wunderground v.1.15,2013-06-05 04:10:00,
2013-06-04 23:15:00,49.2,47.3,30.18,SSE,163,3.0,8.0,93,0.00,,,0.02,Wunderground v.1.15,2013-06-05 04:15:00,
2013-06-04 23:20:00,49.2,47.3,30.19,South,183,2.0,2.0,93,0.00,,,0.02,Wunderground v.1.15,2013-06-05 04:20:00,
2013-06-04 23:25:00,49.3,47.4,30.20,NNW,328,0.0,8.0,93,0.00,,,0.02,Wunderground v.1.15,2013-06-05 04:25:00,
2013-06-04 23:30:00,49.5,47.6,30.19,NNW,333,0.0,8.0,93,0.00,,,0.02,Wunderground v.1.15,2013-06-05 04:30:00,
2013-06-04 23:35:00,49.6,47.7,30.18,SSE,150,0.0,8.0,93,0.00,,,0.02,Wunderground v.1.15,2013-06-05 04:35:00,
2013-06-04 23:40:00,49.4,47.2,30.18,SSE,150,0.0,8.0,92,0.00,,,0.02,Wunderground v.1.15,2013-06-05 04:40:00,
2013-06-04 23:45:00,49.5,47.6,30.19,NNE,15,0.0,8.0,93,0.00,,,0.02,Wunderground v.1.15,2013-06-05 04:45:00,
2013-06-04 23:50:00,49.6,47.4,30.19,ENE,57,0.0,8.0,92,0.00,,,0.02,Wunderground v.1.15,2013-06-05 04:50:00,
2013-06-04 23:55:00,49.5,47.3,30.19,ENE,58,0.0,8.0,92,0.00,,,0.02,Wunderground v.1.15,2013-06-05 04:55:00,